Impacts METAR Board
IDs:

KMDW - Chicago/Midway Intl, IL, US

Updated at: 2000 UTC 15 Jun 2019
Potential Impact None Slight Moderate High
Time 15/08Z 15/09Z 15/10Z 15/11Z 15/12Z 15/13Z 15/14Z 15/15Z 15/16Z 15/17Z 15/18Z 15/19Z 15/20Z
Temp65 65 65 65 66 68 69 69 71 68 67 69 68
Dewpt55 56 57 58 58 59 60 59 61 62 63 64 65
Altim29.81 29.80 29.80 29.78 29.80 29.80 29.79 29.80 29.79 29.80 29.80 29.77 29.78
VIS10 10 10 10 10 10 10 10 10 10 10 10 10
CIG42 48 70 -- 50 90 55 40 60 19 10 12 13
CoverOVCOVCBKNSCTBKNBKNBKNOVCOVCOVCOVCOVCOVC
FltCatVFRVFRVFRVFRVFRVFRVFRVFRVFRMVFRMVFRMVFRMVFR
WX-------------------------RA
WDir210220220200220210210220200210210190210
WSpd9 10 11 9 10 14 12 10 10 12 9 6 4
WGst17 -- -- -- 19 20 18 -- -- 20 -- -- --
Raw hourly METARs
KMDW 150753Z 21009G17KT 10SM OVC042 18/13 A2981 RMK AO2 SLP088 T01830128
KMDW 150853Z 22010KT 10SM BKN048 OVC060 18/13 A2980 RMK AO2 SLP084 T01830133 58010
KMDW 150953Z 22011KT 10SM SCT050 BKN070 BKN090 18/14 A2980 RMK AO2 SLP081 T01830139
KMDW 151053Z 20009KT 10SM SCT049 SCT250 18/14 A2978 RMK AO2 SLP077 T01830144
KMDW 151153Z 22010G19KT 10SM BKN050 BKN075 BKN250 19/14 A2980 RMK AO2 SLP084 70004 T01890144 10189 20178 53000
KMDW 151253Z 21014G20KT 10SM SCT045 BKN090 BKN110 BKN250 20/15 A2980 RMK AO2 SLP082 T02000150
KMDW 151353Z 21012G18KT 10SM FEW045 BKN055 BKN110 BKN250 21/16 A2979 RMK AO2 SLP081 T02060156
KMDW 151453Z 22010KT 10SM BKN040 BKN070 BKN110 OVC250 21/15 A2980 RMK AO2 SLP084 T02060150 55002
KMDW 151553Z 20010KT 10SM SCT040 BKN060 BKN090 OVC250 22/16 A2979 RMK AO2 SLP080 T02170161
KMDW 151653Z 21012G20KT 10SM BKN019 OVC040 20/17 A2980 RMK AO2 RAB00E11 SLP085 P0000 T02000167
KMDW 151753Z 21009KT 10SM BKN010 OVC026 19/17 A2980 RMK AO2 RAB05E20 SLP086 P0000 60000 T01940172 10217 20189 53000
KMDW 151853Z 19006KT 10SM BKN012 OVC021 21/18 A2977 RMK AO2 LTG DSNT N AND NE SLP074 T02060178
KMDW 151953Z 21004KT 10SM -RA OVC013 20/18 A2978 RMK AO2 RAB17 SLP078 P0002 T02000183



Page loaded:  20:29 UTC  |   01:29 PM Pacific  |   02:29 PM Mountain  |   03:29 PM Central  |   04:29 PM Eastern

 

ADVISORIES

FORECASTS

FORECASTS

OBSERVATIONS

USER TOOLS

ABOUT US